Time;durP1;ratioP1;P1;durP2;ratioP2;P2;SDS_P1;SDS_P2;PMS_P1;PMS_P2;Temp;Humidity;BMP_temperature;BMP_pressure;BME280_temperature;BME280_humidity;BME280_pressure;Samples;Min_cycle;Max_cycle;Signal;HPM_P1;HPM_P2
2021/05/08 00:01:52;;;;;;;6.53;5.53;;;1.60;99.90;;;;;;4411968;32;20147;-75
2021/05/08 00:04:25;;;;;;;7.73;5.63;;;1.70;99.90;;;;;;4410140;32;20155;-75
2021/05/08 00:07:11;;;;;;;8.33;5.70;;;1.80;99.90;;;;;;4395490;32;20505;-75
2021/05/08 00:09:54;;;;;;;8.23;5.80;;;1.70;99.90;;;;;;4401918;32;20155;-75
2021/05/08 00:12:31;;;;;;;7.93;5.60;;;1.80;99.90;;;;;;4415439;32;20159;-75
2021/05/08 00:15:00;;;;;;;8.13;6.17;;;1.80;99.90;;;;;;4410747;32;20210;-75
2021/05/08 00:17:33;;;;;;;8.10;5.90;;;1.90;99.90;;;;;;4410687;32;20176;-75
2021/05/08 00:20:11;;;;;;;9.77;6.20;;;2.00;99.90;;;;;;4410443;32;20143;-75
2021/05/08 00:22:46;;;;;;;8.77;6.50;;;2.10;99.90;;;;;;4411686;32;20158;-75
2021/05/08 00:25:27;;;;;;;7.60;5.83;;;2.10;99.90;;;;;;4410787;32;20208;-75
2021/05/08 00:27:59;;;;;;;8.90;6.03;;;2.20;99.90;;;;;;4410633;32;20167;-76
2021/05/08 00:30:25;;;;;;;9.30;5.97;;;2.30;99.90;;;;;;4409753;32;20143;-76
2021/05/08 00:32:52;;;;;;;8.37;6.20;;;2.40;99.90;;;;;;4409756;32;20143;-75
2021/05/08 00:35:18;;;;;;;8.37;5.83;;;2.50;99.90;;;;;;4410220;32;20154;-75
2021/05/08 00:37:44;;;;;;;9.10;6.07;;;2.50;99.90;;;;;;4411355;32;20225;-75
2021/05/08 00:40:12;;;;;;;8.00;6.10;;;2.60;99.90;;;;;;4409976;32;20144;-75
2021/05/08 00:42:38;;;;;;;9.10;5.80;;;2.70;99.90;;;;;;4410152;32;20151;-75
2021/05/08 00:45:07;;;;;;;8.50;5.77;;;2.70;99.90;;;;;;4410148;32;20170;-76
2021/05/08 00:47:48;;;;;;;7.10;5.40;;;2.80;99.90;;;;;;4409705;32;20215;-76
2021/05/08 00:50:20;;;;;;;7.57;5.23;;;2.80;99.90;;;;;;4409972;32;20187;-76
2021/05/08 00:52:54;;;;;;;8.53;5.50;;;2.80;99.90;;;;;;4409774;32;20176;-75
2021/05/08 00:55:36;;;;;;;7.20;5.27;;;2.90;99.90;;;;;;4409858;32;20455;-75
2021/05/08 00:58:52;;;;;;;8.53;5.40;;;2.90;99.90;;;;;;4408654;32;20205;-75
2021/05/08 01:01:35;;;;;;;8.60;5.40;;;3.00;99.90;;;;;;4362958;32;20156;-75
2021/05/08 01:04:16;;;;;;;7.93;5.30;;;3.00;99.90;;;;;;4362812;32;20202;-75
2021/05/08 01:06:48;;;;;;;7.63;5.50;;;3.10;99.90;;;;;;4362235;32;20475;-75
2021/05/08 01:09:29;;;;;;;7.73;5.40;;;3.10;99.90;;;;;;4361846;32;20183;-75
2021/05/08 01:12:24;;;;;;;8.17;5.70;;;3.20;99.90;;;;;;4348518;33;20172;-75
2021/05/08 01:14:59;;;;;;;6.57;5.33;;;3.30;99.90;;;;;;4362164;33;20544;-75
2021/05/08 01:17:32;;;;;;;8.73;6.13;;;3.30;99.90;;;;;;4361961;32;20210;-75
2021/05/08 01:20:13;;;;;;;8.70;5.90;;;3.40;99.90;;;;;;4361260;32;20541;-75
2021/05/08 01:22:45;;;;;;;8.90;6.37;;;3.40;99.90;;;;;;4362341;32;20448;-75
2021/05/08 01:25:28;;;;;;;8.90;6.53;;;3.50;99.90;;;;;;4362535;32;20152;-75
2021/05/08 01:28:10;;;;;;;10.47;7.53;;;3.50;99.90;;;;;;4362619;33;20175;-75
2021/05/08 01:30:43;;;;;;;12.73;8.80;;;3.50;99.90;;;;;;4362090;33;20161;-75
2021/05/08 01:33:32;;;;;;;14.20;10.03;;;3.50;99.90;;;;;;4361624;33;20151;-75
2021/05/08 01:36:08;;;;;;;16.27;10.87;;;3.60;99.90;;;;;;4363562;32;20233;-75
2021/05/08 01:39:10;;;;;;;16.67;12.00;;;3.60;99.90;;;;;;4406558;32;20186;-75
2021/05/08 01:41:48;;;;;;;20.47;13.20;;;3.70;99.90;;;;;;4409939;32;20360;-75
2021/05/08 01:44:27;;;;;;;20.50;14.40;;;3.80;99.90;;;;;;4402972;32;20190;-74
2021/05/08 01:47:10;;;;;;;18.87;13.80;;;3.70;99.90;;;;;;4409950;32;20155;-75
2021/05/08 01:49:47;;;;;;;20.77;14.07;;;3.80;99.90;;;;;;4423639;32;20203;-75
2021/05/08 01:52:21;;;;;;;18.23;12.67;;;3.80;99.90;;;;;;4419147;32;20219;-75
2021/05/08 01:54:57;;;;;;;18.83;12.63;;;3.80;99.90;;;;;;4424001;32;20150;-74
2021/05/08 01:57:31;;;;;;;16.97;11.80;;;3.80;99.90;;;;;;4425819;32;20193;-75
2021/05/08 02:00:00;;;;;;;18.20;12.20;;;3.90;99.90;;;;;;4424738;32;20194;-75
2021/05/08 02:02:31;;;;;;;23.00;13.57;;;3.70;99.90;;;;;;4425573;32;20162;-75
2021/05/08 02:05:12;;;;;;;24.90;14.27;;;3.70;99.90;;;;;;4424221;32;20171;-75
2021/05/08 02:07:48;;;;;;;21.83;13.40;;;3.70;99.90;;;;;;4426104;32;20219;-75
2021/05/08 02:10:40;;;;;;;22.20;14.47;;;3.80;99.90;;;;;;4421456;32;20246;-75
2021/05/08 02:13:51;;;;;;;24.07;14.80;;;3.90;99.90;;;;;;4424483;32;20433;-74
2021/05/08 02:16:41;;;;;;;24.03;14.70;;;4.00;99.90;;;;;;4347074;33;20219;-75
2021/05/08 02:19:18;;;;;;;25.03;15.43;;;4.00;99.90;;;;;;4346542;33;20164;-75
2021/05/08 02:21:55;;;;;;;24.20;15.97;;;4.10;99.90;;;;;;4347346;33;20172;-75
2021/05/08 02:24:33;;;;;;;22.93;15.80;;;4.20;99.90;;;;;;4347342;33;20188;-75
2021/05/08 02:27:51;;;;;;;24.50;15.73;;;4.30;99.90;;;;;;4333980;33;20335;-75
2021/05/08 02:30:41;;;;;;;27.37;16.17;;;4.30;99.90;;;;;;4346587;33;20161;-75
2021/05/08 02:33:46;;;;;;;26.17;16.13;;;4.40;99.90;;;;;;4345681;33;20212;-75
2021/05/08 02:36:15;;;;;;;27.70;17.03;;;4.40;99.90;;;;;;4346731;33;20272;-75
2021/05/08 02:38:56;;;;;;;28.37;17.27;;;4.40;99.90;;;;;;4345555;33;20170;-75
2021/05/08 02:41:41;;;;;;;28.73;17.10;;;4.40;99.90;;;;;;4405404;32;20185;-75
2021/05/08 02:44:24;;;;;;;25.83;16.60;;;4.50;99.90;;;;;;4424319;32;20392;-75
2021/05/08 02:47:17;;;;;;;29.30;18.37;;;4.50;99.90;;;;;;4424543;32;20229;-75
2021/05/08 02:49:56;;;;;;;26.90;16.60;;;4.60;99.90;;;;;;4424330;32;20148;-75
2021/05/08 02:52:34;;;;;;;26.30;16.40;;;4.60;99.90;;;;;;4424265;32;20422;-75
2021/05/08 02:55:19;;;;;;;24.83;16.90;;;4.70;99.90;;;;;;4423502;32;20155;-75
2021/05/08 02:58:08;;;;;;;26.70;17.47;;;4.70;99.90;;;;;;4361532;33;20183;-76
2021/05/08 03:00:41;;;;;;;25.73;16.27;;;4.70;99.90;;;;;;4362814;33;20262;-77
2021/05/08 03:03:10;;;;;;;28.40;17.40;;;4.70;99.90;;;;;;4364487;33;20244;-77
2021/05/08 03:06:02;;;;;;;28.50;17.63;;;4.70;99.90;;;;;;4364499;32;20241;-77
2021/05/08 03:08:37;;;;;;;29.20;18.83;;;4.70;99.90;;;;;;4365562;32;20168;-77
2021/05/08 03:11:10;;;;;;;31.73;18.67;;;4.80;99.90;;;;;;4364366;32;20188;-77
2021/05/08 03:13:53;;;;;;;30.40;19.30;;;4.90;99.90;;;;;;4366260;32;20168;-77
2021/05/08 03:16:26;;;;;;;32.87;21.43;;;4.80;99.90;;;;;;4364528;32;20190;-77
2021/05/08 03:19:03;;;;;;;30.83;20.63;;;4.90;99.90;;;;;;4363735;32;20617;-77
2021/05/08 03:21:59;;;;;;;32.07;20.47;;;4.90;99.90;;;;;;4362629;33;20192;-77
2021/05/08 03:24:35;;;;;;;32.20;19.23;;;5.00;99.90;;;;;;4363903;32;20188;-77
2021/05/08 03:27:06;;;;;;;25.17;17.33;;;5.00;99.90;;;;;;4364155;32;20215;-77
2021/05/08 03:29:38;;;;;;;25.37;17.30;;;5.10;99.90;;;;;;4364472;32;20155;-77
2021/05/08 03:32:17;;;;;;;20.33;14.73;;;5.10;99.90;;;;;;4363903;32;20311;-77
2021/05/08 03:35:06;;;;;;;17.80;13.00;;;5.10;99.90;;;;;;4388131;32;20200;-77
2021/05/08 03:37:45;;;;;;;18.53;13.23;;;5.10;99.90;;;;;;4426615;32;20156;-77
2021/05/08 03:40:37;;;;;;;19.87;13.53;;;5.00;99.90;;;;;;4424100;32;20213;-77
2021/05/08 03:43:19;;;;;;;20.37;14.30;;;5.00;99.90;;;;;;4410324;32;20156;-77
2021/05/08 03:45:55;;;;;;;20.70;13.77;;;5.10;99.90;;;;;;4411511;32;20194;-77
2021/05/08 03:48:26;;;;;;;17.63;13.67;;;5.20;99.90;;;;;;4410957;32;20470;-77
2021/05/08 03:51:00;;;;;;;19.57;13.90;;;5.20;99.90;;;;;;4411477;32;20247;-77
2021/05/08 03:53:45;;;;;;;19.23;14.63;;;5.10;99.90;;;;;;4410861;32;20190;-77
2021/05/08 03:56:24;;;;;;;19.27;13.83;;;5.20;99.90;;;;;;4411323;32;20507;-77
2021/05/08 03:59:14;;;;;;;18.43;13.97;;;5.20;99.90;;;;;;4379308;32;20224;-76
2021/05/08 04:01:49;;;;;;;19.20;13.47;;;5.20;99.90;;;;;;4378184;32;20422;-76
2021/05/08 04:04:41;;;;;;;16.73;12.33;;;5.10;99.90;;;;;;4378278;32;20179;-81
2021/05/08 04:07:19;;;;;;;19.33;11.83;;;5.10;99.90;;;;;;4377915;32;20151;-76
2021/05/08 04:09:50;;;;;;;13.37;9.93;;;5.00;99.90;;;;;;4378095;32;20172;-77
2021/05/08 04:12:27;;;;;;;13.37;10.10;;;4.90;99.90;;;;;;4378560;32;20153;-77
2021/05/08 04:14:58;;;;;;;13.07;9.70;;;4.90;99.90;;;;;;4377915;32;20191;-76
2021/05/08 04:17:35;;;;;;;12.33;9.13;;;4.90;99.90;;;;;;4378191;32;20209;-76
2021/05/08 04:20:14;;;;;;;13.10;10.10;;;4.80;99.90;;;;;;4376203;32;20224;-76
2021/05/08 04:22:49;;;;;;;14.53;9.80;;;4.80;99.90;;;;;;4378425;32;20283;-76
2021/05/08 04:25:19;;;;;;;13.53;9.73;;;4.90;99.90;;;;;;4378310;32;20148;-76
2021/05/08 04:27:56;;;;;;;15.70;10.20;;;4.90;99.90;;;;;;4378182;32;20205;-72
2021/05/08 04:30:26;;;;;;;11.93;9.40;;;4.90;99.90;;;;;;4378376;32;20197;-72
2021/05/08 04:33:22;;;;;;;11.87;9.47;;;5.00;99.90;;;;;;4376794;32;20185;-71
2021/05/08 04:35:56;;;;;;;12.30;9.83;;;4.90;99.90;;;;;;4396616;32;20497;-72
2021/05/08 04:41:25;;;;;;;14.47;10.50;;;5.00;99.90;;;;;;4382417;32;20202;-75
2021/05/08 04:44:21;;;;;;;15.07;10.53;;;5.00;99.90;;;;;;4379879;32;20212;-76
2021/05/08 04:47:07;;;;;;;12.10;8.67;;;5.00;99.90;;;;;;4377437;32;20208;-75
2021/05/08 04:49:43;;;;;;;10.60;7.70;;;4.90;99.90;;;;;;4376693;32;20194;-76
2021/05/08 04:52:20;;;;;;;12.77;8.00;;;4.90;99.90;;;;;;4377828;32;20525;-76
2021/05/08 04:54:50;;;;;;;13.63;9.03;;;4.90;99.90;;;;;;4377177;32;20439;-75
2021/05/08 04:57:41;;;;;;;13.93;9.17;;;5.00;99.90;;;;;;4377219;32;20303;-76
2021/05/08 05:00:13;;;;;;;14.33;9.53;;;5.00;99.90;;;;;;4377323;32;20199;-76
2021/05/08 05:02:51;;;;;;;13.43;9.00;;;5.10;99.90;;;;;;4377805;32;20173;-76
2021/05/08 05:05:27;;;;;;;13.67;9.30;;;5.00;99.90;;;;;;4382289;32;20167;-76
2021/05/08 05:08:37;;;;;;;12.27;9.60;;;5.00;99.90;;;;;;4389826;32;20211;-76
2021/05/08 05:11:19;;;;;;;13.87;9.60;;;5.00;99.90;;;;;;4386913;32;20154;-76
2021/05/08 05:13:58;;;;;;;13.97;9.40;;;5.10;99.90;;;;;;4362478;32;20153;-76
2021/05/08 05:16:34;;;;;;;14.07;9.30;;;5.10;99.90;;;;;;4362624;32;20212;-76
2021/05/08 05:19:13;;;;;;;13.10;10.00;;;5.10;99.90;;;;;;4390878;32;20204;-76
2021/05/08 05:21:51;;;;;;;15.83;9.73;;;5.20;99.90;;;;;;4396308;32;20551;-76
2021/05/08 05:25:03;;;;;;;13.23;9.50;;;5.20;99.90;;;;;;4400562;32;20159;-76
2021/05/08 05:27:39;;;;;;;17.13;10.50;;;5.30;99.90;;;;;;4390796;32;20400;-76
2021/05/08 05:30:28;;;;;;;14.63;10.03;;;5.40;99.90;;;;;;4393204;32;20196;-76
2021/05/08 05:33:10;;;;;;;16.00;10.87;;;5.30;99.90;;;;;;4394424;32;20145;-76
2021/05/08 05:36:10;;;;;;;14.17;9.87;;;5.40;99.90;;;;;;4395685;32;20247;-76
2021/05/08 05:38:39;;;;;;;12.97;10.03;;;5.40;99.90;;;;;;4395402;32;20255;-76
2021/05/08 05:41:22;;;;;;;14.97;9.33;;;5.20;99.90;;;;;;4394937;32;20156;-76
2021/05/08 05:44:03;;;;;;;14.03;9.97;;;5.30;99.90;;;;;;4394713;32;20226;-76
2021/05/08 05:46:33;;;;;;;12.53;8.83;;;5.50;99.90;;;;;;4394271;32;20334;-76
2021/05/08 05:49:08;;;;;;;13.23;9.03;;;5.50;99.90;;;;;;4394295;32;20148;-76
2021/05/08 05:51:40;;;;;;;11.53;8.23;;;5.60;99.90;;;;;;4394796;32;20184;-76
2021/05/08 05:54:30;;;;;;;11.87;8.37;;;5.70;99.90;;;;;;4394461;32;20187;-76
2021/05/08 05:57:06;;;;;;;10.93;8.13;;;5.50;99.90;;;;;;4394244;32;20160;-76
2021/05/08 05:59:50;;;;;;;10.57;8.30;;;5.50;99.90;;;;;;4393968;32;20149;-76
2021/05/08 06:02:34;;;;;;;11.07;8.30;;;5.50;99.90;;;;;;4332460;33;20157;-76
2021/05/08 06:05:12;;;;;;;9.83;7.63;;;5.70;99.90;;;;;;4348862;33;20211;-76
2021/05/08 06:07:54;;;;;;;9.83;7.77;;;5.70;99.90;;;;;;4334233;33;20165;-76
2021/05/08 06:10:21;;;;;;;11.57;7.97;;;5.70;99.90;;;;;;4346889;33;20465;-76
2021/05/08 06:13:17;;;;;;;10.33;7.90;;;5.60;99.90;;;;;;4347399;33;20153;-76
2021/05/08 06:16:35;;;;;;;9.53;7.27;;;5.80;99.90;;;;;;4346374;33;20161;-76
2021/05/08 06:18:51;;;;;;;10.60;7.67;;;5.80;99.90;;;;;;4347668;33;20505;-76
2021/05/08 06:21:38;;;;;;;9.93;7.00;;;5.80;99.90;;;;;;4361301;33;20182;-76
2021/05/08 06:24:24;;;;;;;9.87;7.37;;;5.80;99.90;;;;;;4361851;33;20186;-76
2021/05/08 06:26:58;;;;;;;10.87;7.50;;;6.10;99.90;;;;;;4386171;32;20163;-77
2021/05/08 06:29:35;;;;;;;9.63;7.00;;;6.40;99.90;;;;;;4411901;32;20278;-76
2021/05/08 06:32:29;;;;;;;9.50;7.33;;;6.50;99.90;;;;;;4418143;32;20160;-76
2021/05/08 06:35:03;;;;;;;10.10;7.33;;;6.60;99.90;;;;;;4424006;32;20511;-76
2021/05/08 06:37:40;;;;;;;9.60;6.03;;;6.80;99.90;;;;;;4413607;32;20236;-76
2021/05/08 06:40:56;;;;;;;8.33;6.47;;;6.70;99.90;;;;;;4412958;32;20153;-76
2021/05/08 06:43:58;;;;;;;9.60;6.20;;;6.50;99.90;;;;;;4335027;33;20155;-76
2021/05/08 06:46:50;;;;;;;9.27;6.53;;;6.50;99.90;;;;;;4290903;33;20240;-77
2021/05/08 06:49:44;;;;;;;8.60;6.83;;;6.50;99.90;;;;;;4291242;33;20156;-77
2021/05/08 06:52:52;;;;;;;8.00;6.80;;;6.70;99.90;;;;;;4234954;34;20189;-77
2021/05/08 06:55:30;;;;;;;9.70;7.30;;;6.80;99.90;;;;;;4234024;34;20190;-77
2021/05/08 06:58:24;;;;;;;8.07;6.13;;;6.80;99.90;;;;;;4222419;34;20205;-77
2021/05/08 07:00:59;;;;;;;7.37;6.37;;;6.90;99.90;;;;;;4222685;34;20200;-77
2021/05/08 07:03:25;;;;;;;10.20;7.07;;;6.90;99.90;;;;;;4222385;34;20225;-77
2021/05/08 07:06:06;;;;;;;7.57;6.70;;;7.20;99.90;;;;;;4234594;34;20205;-77
2021/05/08 07:08:37;;;;;;;9.20;7.00;;;7.40;99.90;;;;;;4234411;34;20202;-77
2021/05/08 07:11:06;;;;;;;8.87;6.70;;;7.50;99.90;;;;;;4233452;34;20243;-77
2021/05/08 07:13:55;;;;;;;8.50;6.97;;;7.70;99.90;;;;;;4223090;34;20588;-76
2021/05/08 07:16:21;;;;;;;10.63;7.37;;;7.70;99.90;;;;;;4219514;34;20179;-77
2021/05/08 07:18:52;;;;;;;8.73;7.10;;;7.50;99.90;;;;;;4219885;34;20155;-76
2021/05/08 07:21:45;;;;;;;11.13;7.10;;;7.70;99.90;;;;;;4231670;34;20433;-76
2021/05/08 07:24:46;;;;;;;7.40;6.07;;;7.80;99.90;;;;;;4303171;33;20237;-76
2021/05/08 07:27:26;;;;;;;7.23;5.83;;;7.90;99.90;;;;;;4305666;33;20165;-75
2021/05/08 07:30:17;;;;;;;8.33;5.70;;;7.80;99.90;;;;;;4305010;33;20185;-77
2021/05/08 07:33:02;;;;;;;8.20;6.53;;;7.80;99.90;;;;;;4304198;33;20161;-75
2021/05/08 07:35:40;;;;;;;8.47;6.60;;;7.60;99.90;;;;;;4305991;33;20269;-75
2021/05/08 07:38:24;;;;;;;11.57;6.60;;;7.60;99.90;;;;;;4305513;33;20504;-75
2021/05/08 07:41:02;;;;;;;7.53;5.90;;;7.50;99.90;;;;;;4305231;33;20160;-76
2021/05/08 07:43:30;;;;;;;9.93;6.33;;;7.60;99.90;;;;;;4305408;33;20456;-76
2021/05/08 07:46:14;;;;;;;8.00;5.97;;;7.70;99.90;;;;;;4304745;33;20569;-76
2021/05/08 07:48:50;;;;;;;7.97;5.30;;;7.80;99.90;;;;;;4303756;33;20160;-75
2021/05/08 07:51:40;;;;;;;6.70;4.70;;;7.90;99.90;;;;;;4304884;33;20179;-75
2021/05/08 07:54:27;;;;;;;7.63;4.83;;;8.30;99.90;;;;;;4285028;33;20169;-75
2021/05/08 07:57:10;;;;;;;7.93;4.53;;;8.70;99.90;;;;;;4290668;33;20257;-76
2021/05/08 08:00:20;;;;;;;7.67;4.53;;;8.80;99.90;;;;;;4262037;33;20537;-75
2021/05/08 08:02:50;;;;;;;7.77;4.93;;;8.70;99.90;;;;;;4249912;33;20206;-76
2021/05/08 08:05:23;;;;;;;6.07;4.50;;;8.50;99.90;;;;;;4248713;33;20213;-75
2021/05/08 08:08:02;;;;;;;6.73;4.90;;;8.60;99.90;;;;;;4249470;33;20196;-75
2021/05/08 08:10:37;;;;;;;7.30;4.97;;;8.70;99.90;;;;;;4248183;33;20152;-75
2021/05/08 08:13:18;;;;;;;6.83;4.70;;;8.50;99.90;;;;;;4249214;33;20521;-75
2021/05/08 08:16:18;;;;;;;8.63;4.70;;;8.60;99.90;;;;;;4249464;33;20190;-77
2021/05/08 08:18:54;;;;;;;6.10;4.20;;;9.10;99.90;;;;;;4274510;33;20220;-76
2021/05/08 08:21:49;;;;;;;5.80;3.93;;;8.90;99.90;;;;;;4289716;33;20162;-76
2021/05/08 08:24:22;;;;;;;8.20;3.73;;;8.90;99.90;;;;;;4289810;33;20201;-74
2021/05/08 08:26:56;;;;;;;4.70;3.37;;;9.20;99.90;;;;;;4289710;33;20218;-76
2021/05/08 08:29:31;;;;;;;4.17;3.00;;;9.60;99.90;;;;;;4289356;33;20622;-75
2021/05/08 08:32:38;;;;;;;7.03;3.90;;;9.60;99.90;;;;;;4303791;33;20216;-75
2021/05/08 08:35:32;;;;;;;7.00;4.13;;;9.90;99.90;;;;;;4303952;33;20196;-75
2021/05/08 08:38:22;;;;;;;5.50;3.90;;;10.20;99.20;;;;;;4304435;33;20201;-76
2021/05/08 08:40:55;;;;;;;8.67;4.03;;;9.90;99.90;;;;;;4303619;33;20168;-76
2021/05/08 08:43:32;;;;;;;9.17;4.07;;;10.10;99.90;;;;;;4303424;33;20199;-76
2021/05/08 08:46:14;;;;;;;5.53;3.47;;;10.60;99.50;;;;;;4303991;33;20220;-76
2021/05/08 08:48:53;;;;;;;7.97;3.80;;;10.30;96.30;;;;;;4303904;33;20153;-76
2021/05/08 08:51:20;;;;;;;6.47;3.60;;;10.50;98.10;;;;;;4305036;33;20196;-76
2021/05/08 08:53:55;;;;;;;3.87;3.30;;;10.50;98.30;;;;;;4303689;33;20162;-76
2021/05/08 08:59:55;;;;;;;5.53;3.73;;;11.00;97.40;;;;;;4274362;33;20154;-76
2021/05/08 09:02:34;;;;;;;5.00;3.40;;;11.20;92.70;;;;;;4274482;33;20161;-76
2021/05/08 09:05:18;;;;;;;5.30;3.10;;;11.60;94.20;;;;;;4273042;33;20212;-76
2021/05/08 09:08:09;;;;;;;4.37;2.80;;;11.60;91.30;;;;;;4262872;33;20158;-76
2021/05/08 09:10:56;;;;;;;6.23;3.30;;;11.70;90.90;;;;;;4264389;33;20264;-77
2021/05/08 09:13:45;;;;;;;4.37;3.23;;;11.50;90.20;;;;;;4266659;33;20204;-77
2021/05/08 09:16:21;;;;;;;6.10;3.33;;;11.80;90.00;;;;;;4258600;33;20166;-77
2021/05/08 09:18:50;;;;;;;6.67;3.90;;;11.80;87.60;;;;;;4263469;33;20199;-77
2021/05/08 09:21:43;;;;;;;6.87;3.40;;;11.30;90.90;;;;;;4263382;33;20158;-77
2021/05/08 09:24:30;;;;;;;4.77;3.20;;;11.40;90.70;;;;;;4260171;33;20219;-76
2021/05/08 09:27:07;;;;;;;5.87;3.10;;;11.80;89.10;;;;;;4266688;33;20218;-76
2021/05/08 09:30:08;;;;;;;4.07;2.80;;;11.80;84.30;;;;;;4264287;33;20151;-77
2021/05/08 09:32:47;;;;;;;5.53;3.10;;;12.40;83.70;;;;;;4269258;33;20166;-78
2021/05/08 09:35:42;;;;;;;6.70;3.07;;;12.10;82.00;;;;;;4261128;33;20181;-77
2021/05/08 09:38:45;;;;;;;5.97;3.07;;;12.10;84.10;;;;;;4299394;33;20215;-77
2021/05/08 09:41:19;;;;;;;4.13;2.60;;;12.70;80.70;;;;;;4300943;33;20165;-77
2021/05/08 09:43:56;;;;;;;5.23;2.30;;;12.70;76.90;;;;;;4295779;33;20209;-77
2021/05/08 09:46:32;;;;;;;4.10;2.90;;;13.10;74.90;;;;;;4288634;33;20221;-76
2021/05/08 09:49:21;;;;;;;5.30;2.77;;;12.50;74.30;;;;;;4290429;33;20216;-76
2021/05/08 09:52:04;;;;;;;4.13;2.40;;;12.40;79.60;;;;;;4289796;33;20177;-77
2021/05/08 09:54:39;;;;;;;4.47;2.63;;;12.30;76.30;;;;;;4289030;33;20213;-76
2021/05/08 09:57:19;;;;;;;5.33;2.70;;;12.70;76.00;;;;;;4287903;33;20157;-77
2021/05/08 09:59:54;;;;;;;4.27;2.60;;;12.60;75.50;;;;;;4289812;33;20153;-75
2021/05/08 10:02:35;;;;;;;6.67;2.57;;;12.50;79.00;;;;;;4295627;33;20165;-78
2021/05/08 10:05:13;;;;;;;4.40;2.00;;;11.50;81.10;;;;;;4296728;33;20225;-77
2021/05/08 10:07:53;;;;;;;2.73;1.20;;;11.40;84.20;;;;;;4290448;33;20233;-76
2021/05/08 10:10:32;;;;;;;2.07;1.37;;;11.30;77.40;;;;;;4289226;33;20237;-76
2021/05/08 10:13:12;;;;;;;2.03;1.43;;;11.50;74.80;;;;;;4287949;33;20161;-76
2021/05/08 10:16:10;;;;;;;3.27;1.57;;;12.10;75.90;;;;;;4286111;33;20465;-74
2021/05/08 10:18:54;;;;;;;2.93;1.80;;;12.10;71.80;;;;;;4280393;33;20153;-77
2021/05/08 10:21:33;;;;;;;3.70;2.00;;;12.60;68.90;;;;;;4291936;33;20165;-75
2021/05/08 10:24:11;;;;;;;3.73;2.13;;;12.50;70.40;;;;;;4300124;33;20255;-75
2021/05/08 10:26:49;;;;;;;4.77;1.83;;;11.90;71.20;;;;;;4301023;33;20263;-76
2021/05/08 10:29:38;;;;;;;6.60;2.00;;;12.60;71.60;;;;;;4290311;33;20204;-76
2021/05/08 10:32:10;;;;;;;3.10;2.10;;;13.50;68.70;;;;;;4291463;33;20527;-75
2021/05/08 10:34:51;;;;;;;4.73;2.50;;;14.00;67.80;;;;;;4289537;33;20169;-71
2021/05/08 10:37:33;;;;;;;3.63;2.20;;;13.90;68.70;;;;;;4288759;33;20157;-70
2021/05/08 10:40:20;;;;;;;3.60;2.30;;;13.70;70.80;;;;;;4291070;33;20233;-70
2021/05/08 10:42:51;;;;;;;4.80;2.20;;;13.70;69.60;;;;;;4274824;33;20170;-70
2021/05/08 10:45:28;;;;;;;3.80;2.20;;;13.60;71.20;;;;;;4297554;33;20181;-71
2021/05/08 10:48:13;;;;;;;6.17;2.40;;;13.30;70.20;;;;;;4296044;33;20224;-70
2021/05/08 10:50:47;;;;;;;5.93;2.33;;;13.60;69.20;;;;;;4288054;33;20216;-70
2021/05/08 10:56:40;;;;;;;4.23;2.20;;;14.10;69.00;;;;;;4337451;33;20316;-69
2021/05/08 10:59:26;;;;;;;5.57;2.80;;;13.80;68.10;;;;;;4346469;33;20154;-71
2021/05/08 11:02:02;;;;;;;4.77;2.67;;;12.90;71.90;;;;;;4346267;33;20290;-71
2021/05/08 11:05:19;;;;;;;5.10;2.30;;;12.40;73.10;;;;;;4345031;33;20168;-70
2021/05/08 11:08:28;;;;;;;3.90;2.43;;;12.00;74.00;;;;;;4344919;33;20168;-70
2021/05/08 11:11:13;;;;;;;4.87;2.73;;;11.90;75.80;;;;;;4345448;33;20161;-70
2021/05/08 11:14:01;;;;;;;3.10;1.93;;;11.60;77.50;;;;;;4346247;33;20152;-70
2021/05/08 11:16:56;;;;;;;4.07;2.00;;;12.00;75.20;;;;;;4346958;33;20186;-70
2021/05/08 11:19:29;;;;;;;4.93;2.27;;;13.10;69.30;;;;;;4340059;33;20171;-70
2021/05/08 11:22:35;;;;;;;3.63;1.90;;;12.50;69.50;;;;;;4346676;33;20200;-70
2021/05/08 11:25:33;;;;;;;4.60;1.90;;;12.70;70.40;;;;;;4348752;33;20167;-70
2021/05/08 11:28:18;;;;;;;4.03;2.20;;;12.30;69.20;;;;;;4348361;33;20152;-71
2021/05/08 11:30:57;;;;;;;2.60;1.80;;;12.70;70.90;;;;;;4345072;33;20523;-70
2021/05/08 11:33:32;;;;;;;3.37;1.90;;;13.20;66.90;;;;;;4349271;33;20453;-70
2021/05/08 11:36:03;;;;;;;5.63;2.50;;;13.20;67.40;;;;;;4348984;33;20188;-69
2021/05/08 11:38:47;;;;;;;6.53;2.70;;;12.20;71.60;;;;;;4349422;33;20160;-68
2021/05/08 11:41:31;;;;;;;5.07;2.37;;;12.30;75.50;;;;;;4344292;33;20176;-70
2021/05/08 11:44:46;;;;;;;5.10;2.30;;;12.90;76.30;;;;;;4349717;33;20600;-70
2021/05/08 11:47:36;;;;;;;6.37;2.30;;;14.00;72.50;;;;;;4294154;33;20164;-70
2021/05/08 11:50:14;;;;;;;3.30;1.90;;;14.20;68.00;;;;;;4304360;33;20161;-71
2021/05/08 11:52:57;;;;;;;6.53;2.20;;;13.80;66.30;;;;;;4306904;33;20181;-70
2021/05/08 11:55:31;;;;;;;3.53;1.80;;;13.30;67.50;;;;;;4320504;33;20510;-71
2021/05/08 11:58:07;;;;;;;4.90;2.07;;;13.50;67.50;;;;;;4338277;32;20208;-70
2021/05/08 12:00:41;;;;;;;4.43;2.10;;;13.20;64.40;;;;;;4348151;32;20503;-70
2021/05/08 12:03:17;;;;;;;2.73;1.93;;;13.50;65.70;;;;;;4355139;33;20168;-70
2021/05/08 12:06:00;;;;;;;4.30;2.00;;;14.00;64.30;;;;;;4348337;33;20179;-69
2021/05/08 12:08:35;;;;;;;5.47;2.20;;;14.80;60.80;;;;;;4357803;32;20172;-69
2021/05/08 12:11:15;;;;;;;4.87;2.20;;;14.50;61.90;;;;;;4356438;32;20558;-68
2021/05/08 12:14:12;;;;;;;4.53;2.00;;;14.50;61.50;;;;;;4348451;33;20165;-68
2021/05/08 12:17:10;;;;;;;4.17;1.97;;;13.90;63.90;;;;;;4275437;33;20163;-69
2021/05/08 12:19:48;;;;;;;5.47;1.77;;;14.00;61.50;;;;;;4272322;33;20446;-70
2021/05/08 12:22:17;;;;;;;4.60;1.97;;;14.20;61.70;;;;;;4290019;33;20438;-70
2021/05/08 12:24:49;;;;;;;3.00;1.90;;;14.70;61.30;;;;;;4299894;33;20216;-69
2021/05/08 12:27:20;;;;;;;3.90;2.00;;;15.40;59.20;;;;;;4304403;33;20172;-70
2021/05/08 12:32:52;;;;;;;3.33;1.93;;;16.30;56.40;;;;;;4307396;33;20244;-70
2021/05/08 12:35:23;;;;;;;3.87;1.70;;;16.50;55.60;;;;;;4300403;33;20169;-75
2021/05/08 12:37:52;;;;;;;3.17;1.93;;;16.80;54.10;;;;;;4297409;33;20197;-76
2021/05/08 12:40:30;;;;;;;3.97;1.70;;;16.70;54.80;;;;;;4303290;33;20173;-74
2021/05/08 12:42:56;;;;;;;2.73;2.10;;;16.10;54.90;;;;;;4356039;32;20660;-76
2021/05/08 12:45:23;;;;;;;2.60;1.90;;;15.90;55.50;;;;;;4366703;32;20485;-76
2021/05/08 12:47:50;;;;;;;3.40;2.07;;;15.50;55.40;;;;;;4402357;32;20167;-75
2021/05/08 12:50:27;;;;;;;4.13;1.80;;;15.20;57.60;;;;;;4408095;32;20227;-74
2021/05/08 12:53:05;;;;;;;4.70;1.80;;;15.00;58.50;;;;;;4409517;32;20162;-74
2021/05/08 12:55:33;;;;;;;3.13;1.60;;;14.80;57.30;;;;;;4409624;32;20425;-74
2021/05/08 12:58:10;;;;;;;3.47;1.77;;;15.60;59.20;;;;;;4410083;32;20193;-74
2021/05/08 13:00:45;;;;;;;5.20;1.90;;;15.80;54.10;;;;;;4410722;32;20151;-75
2021/05/08 13:03:32;;;;;;;3.30;1.77;;;16.10;54.40;;;;;;4410623;32;20195;-75
2021/05/08 13:05:58;;;;;;;4.77;2.10;;;16.20;52.80;;;;;;4411504;32;20143;-74
2021/05/08 13:08:53;;;;;;;3.77;2.23;;;16.10;54.30;;;;;;4409746;32;20139;-75
2021/05/08 13:11:40;;;;;;;6.50;1.87;;;16.90;52.20;;;;;;4410037;32;20359;-75
2021/05/08 13:14:31;;;;;;;2.93;1.80;;;17.00;51.80;;;;;;4409360;32;20193;-74
2021/05/08 13:17:16;;;;;;;4.62;2.10;;;16.90;51.20;;;;;;4409698;32;20060;-75
2021/05/08 13:20:31;;;;;;;;;;;;;;;;;;;;;
2021/05/08 13:22:55;;;;;;;3.50;1.90;;;17.20;49.90;;;;;;4423578;32;20204;-74
2021/05/08 13:25:25;;;;;;;3.63;1.90;;;17.30;50.40;;;;;;4412337;32;20206;-74
2021/05/08 13:28:05;;;;;;;3.27;1.70;;;17.50;49.60;;;;;;4417246;32;20169;-74
2021/05/08 13:30:47;;;;;;;3.60;1.60;;;17.50;48.10;;;;;;4413936;32;20246;-74
2021/05/08 13:33:14;;;;;;;2.53;1.70;;;17.90;47.20;;;;;;4413326;32;20527;-75
2021/05/08 13:35:41;;;;;;;6.40;2.50;;;16.80;50.20;;;;;;4406203;32;20182;-74
2021/05/08 13:38:07;;;;;;;3.33;1.80;;;16.00;51.30;;;;;;4413279;32;20175;-75
2021/05/08 13:40:34;;;;;;;3.23;1.80;;;15.50;52.70;;;;;;4791201;27;20258;-75
2021/05/08 13:43:00;;;;;;;3.90;1.70;;;16.50;51.50;;;;;;4407577;32;20208;-75
2021/05/08 13:45:27;;;;;;;4.13;1.70;;;16.70;50.00;;;;;;4408563;32;20267;-77
2021/05/08 13:47:55;;;;;;;5.27;2.37;;;17.20;48.90;;;;;;4407152;32;20194;-74
2021/05/08 13:50:22;;;;;;;4.63;1.80;;;16.40;49.90;;;;;;4408899;32;20171;-73
2021/05/08 13:52:48;;;;;;;4.63;1.70;;;16.00;51.30;;;;;;4400811;32;20178;-73
2021/05/08 13:55:15;;;;;;;3.33;1.70;;;16.20;50.80;;;;;;4408426;32;20179;-75
2021/05/08 13:57:47;;;;;;;5.80;2.10;;;15.30;52.60;;;;;;4409142;32;20227;-75
2021/05/08 14:00:13;;;;;;;5.70;1.80;;;14.80;54.10;;;;;;4408845;32;20189;-75
2021/05/08 14:02:40;;;;;;;4.30;1.50;;;14.60;54.00;;;;;;4409950;32;20540;-75
2021/05/08 14:05:07;;;;;;;2.23;1.70;;;14.50;55.40;;;;;;4408344;32;20166;-74
2021/05/08 14:07:33;;;;;;;5.03;1.90;;;13.70;56.10;;;;;;4408826;32;20156;-71
2021/05/08 14:09:59;;;;;;;4.30;2.00;;;13.60;57.60;;;;;;4408789;32;20390;-75